Santa Maria Pub/Capt G Allan Hancock Field
KSMX : now visible

Airfield :











YOU CAN JOIN US ON...

 
LOGIN :

Register | Disclaimer

   EN    FR    IT 

 









Legend :    VFR   Marginal VFR   IFR   Intensive IFR   Very Intensive IFR
Visi :
Ceiling :
>= 8 km
>= 3000ft
5 to 8 km
1000 to 3000 ft
1500m to 5 km
500 to 1000 ft
800 to 1500m
200 to 500 ft
< 800m
< 200 ft
Symbols :   Thunderstorms  Fog  Heavy snow  Heavy precipitations  Wind > 20 kt






- Airport Elevation : 261 ft
- IATA code : SMX


KSMX - Santa Maria Pub/Capt G Allan Hancock Field

CURRENT METAR :
  • 250151Z 30006KT 6SM BR BKN007 16/14 A3004 RMK AO2 SLP174 T01560144

EXPIRED METARs :
  • 250051Z 30007KT 8SM CLR 18/14 A3003 RMK AO2 SLP170 T01780144
  • 242351Z 30007KT 9SM CLR 19/15 A3002 RMK AO2 SLP167 T01940150 10217 20172 57010

TAF KSMX
Valid from the 25 at 00:00 until the 26 at 00:00 UTC


242333Z 2500/2524 30010KT P6SM SKC
FM250400 VRB03KT 1/2SM FG OVC002
FM251300 VRB03KT 2SM BR OVC004
FM251800 VRB03KT 5SM HZ SKC
FM252000 30012KT P6SM SKC
KZLA FIR / North America



MET'MAP, your aeronautical weather chart ! - Copyright ORBIFLY December 2007 - Disclaimer

ORBIFLY MET'MAP TEAM :

Programming & Development : Alexandra Zaïnal
Original concept : Baudouin d'Aumeries
Technical & hardware support : Manuel Goepfert
Assistance : Marc-Olivier Méhu




SOURCES & CREDITS :

   NOAA       Earth
Advisory